TimeEDT,TemperatureF,Dew PointF,Humidity,Sea Level PressureIn,VisibilityMPH,Wind Direction,Wind SpeedMPH,Gust SpeedMPH,PrecipitationIn,Events,Conditions,WindDirDegrees,DateUTC
12:21 AM,78.8,71.6,78,30.05,10.0,SSE,5.8,-,N/A,,Scattered Clouds,160,2013-04-20 04:21:00
12:53 AM,79.0,72.0,79,30.04,10.0,SE,11.5,-,N/A,,Mostly Cloudy,140,2013-04-20 04:53:00
1:18 AM,80.6,73.4,79,30.03,10.0,SSE,8.1,-,N/A,,Mostly Cloudy,150,2013-04-20 05:18:00
1:53 AM,75.9,73.0,91,30.02,10.0,Calm,Calm,-,0.23,Rain,Light Rain,0,2013-04-20 05:53:00
2:06 AM,77.0,73.4,89,30.01,10.0,SSE,4.6,-,0.00,,Overcast,160,2013-04-20 06:06:00
2:53 AM,77.0,73.9,90,30.01,10.0,South,5.8,-,0.00,,Partly Cloudy,180,2013-04-20 06:53:00
3:38 AM,77.0,73.4,89,30.00,10.0,South,4.6,-,N/A,,Mostly Cloudy,180,2013-04-20 07:38:00
3:53 AM,78.1,73.9,87,30.00,10.0,South,5.8,-,0.00,Rain,Light Rain,190,2013-04-20 07:53:00
4:20 AM,78.8,73.4,83,29.99,10.0,SSW,9.2,-,0.00,,Overcast,210,2013-04-20 08:20:00
4:53 AM,77.0,73.0,88,30.00,10.0,South,4.6,-,0.00,,Partly Cloudy,180,2013-04-20 08:53:00
5:53 AM,75.9,73.0,91,30.00,10.0,Calm,Calm,-,N/A,,Scattered Clouds,0,2013-04-20 09:53:00
6:53 AM,75.9,73.0,91,30.01,10.0,WSW,3.5,-,N/A,,Mostly Cloudy,250,2013-04-20 10:53:00
7:53 AM,77.0,75.0,94,30.03,10.0,Calm,Calm,-,N/A,,Clear,0,2013-04-20 11:53:00
8:53 AM,79.0,73.9,84,30.04,10.0,SW,4.6,-,N/A,,Scattered Clouds,220,2013-04-20 12:53:00
9:03 AM,78.8,73.4,83,30.04,10.0,WSW,3.5,-,N/A,,Mostly Cloudy,240,2013-04-20 13:03:00
9:26 AM,80.6,73.4,79,30.03,10.0,WSW,9.2,-,N/A,,Scattered Clouds,240,2013-04-20 13:26:00
9:53 AM,82.0,73.9,76,30.04,10.0,WSW,10.4,-,N/A,,Partly Cloudy,240,2013-04-20 13:53:00
10:53 AM,84.0,73.0,69,30.05,10.0,Calm,Calm,-,N/A,,Scattered Clouds,0,2013-04-20 14:53:00
11:53 AM,87.1,71.1,59,30.06,10.0,Calm,Calm,-,N/A,,Partly Cloudy,0,2013-04-20 15:53:00
12:53 PM,87.1,66.0,49,30.04,10.0,Variable,3.5,-,N/A,,Partly Cloudy,0,2013-04-20 16:53:00
1:53 PM,88.0,64.0,45,30.02,10.0,Variable,3.5,-,N/A,,Partly Cloudy,0,2013-04-20 17:53:00
2:50 PM,84.2,73.4,70,30.00,10.0,SSE,4.6,-,N/A,,Overcast,150,2013-04-20 18:50:00
2:53 PM,84.9,73.0,67,30.00,10.0,ESE,6.9,-,N/A,,Overcast,110,2013-04-20 18:53:00
3:17 PM,86.0,73.4,66,29.98,10.0,SE,9.2,-,N/A,,Mostly Cloudy,140,2013-04-20 19:17:00
3:53 PM,86.0,72.0,63,29.98,10.0,SSE,12.7,-,N/A,,Partly Cloudy,150,2013-04-20 19:53:00
4:53 PM,84.0,70.0,63,29.96,10.0,SSE,13.8,-,N/A,,Partly Cloudy,160,2013-04-20 20:53:00
4:59 PM,82.4,69.8,66,30.00,10.0,NNW,27.6,38.0,N/A,Thunderstorm,Thunderstorm,340,2013-04-20 20:59:00
5:05 PM,75.2,68.0,78,30.01,1.0,NW,24.2,38.0,0.03,Rain-Thunderstorm,Thunderstorms and Rain,320,2013-04-20 21:05:00
5:12 PM,73.4,69.8,88,30.04,1.0,NNW,28.8,38.0,0.31,Rain-Thunderstorm,Heavy Thunderstorms and Rain,340,2013-04-20 21:12:00
5:20 PM,73.4,69.8,88,30.05,1.0,North,11.5,36.8,0.60,Thunderstorm,Overcast,360,2013-04-20 21:20:00
5:27 PM,69.8,66.2,88,30.03,1.0,NE,12.7,-,0.83,Rain-Thunderstorm,Heavy Thunderstorms and Rain,40,2013-04-20 21:27:00
5:31 PM,69.8,66.2,88,30.04,10.0,North,8.1,-,0.88,Rain-Thunderstorm,Heavy Thunderstorms and Rain,10,2013-04-20 21:31:00
5:51 PM,71.6,69.8,94,30.02,10.0,Variable,3.5,-,1.03,Rain-Thunderstorm,Rain,0,2013-04-20 21:51:00
5:53 PM,71.1,69.1,93,30.03,10.0,NE,4.6,-,1.04,Rain-Thunderstorm,Heavy Rain,50,2013-04-20 21:53:00
6:12 PM,71.6,69.8,94,30.02,10.0,North,6.9,-,0.02,Rain,Light Rain,350,2013-04-20 22:12:00
6:49 PM,73.4,69.8,88,30.03,10.0,NE,10.4,-,0.03,Thunderstorm,Overcast,40,2013-04-20 22:49:00
6:53 PM,73.0,70.0,90,30.03,10.0,NE,11.5,-,0.03,Thunderstorm,Overcast,40,2013-04-20 22:53:00
7:04 PM,73.4,71.6,94,30.03,10.0,NNE,11.5,-,N/A,,Mostly Cloudy,30,2013-04-20 23:04:00
7:53 PM,73.0,71.1,93,30.04,10.0,ESE,4.6,-,N/A,,Clear,110,2013-04-20 23:53:00
8:53 PM,73.0,70.0,90,30.06,10.0,North,3.5,-,N/A,,Partly Cloudy,350,2013-04-21 00:53:00
9:53 PM,75.0,72.0,90,30.09,10.0,North,5.8,-,N/A,,Clear,350,2013-04-21 01:53:00
10:53 PM,75.0,72.0,90,30.09,10.0,North,3.5,-,N/A,,Clear,10,2013-04-21 02:53:00
11:53 PM,75.0,72.0,90,30.10,10.0,WNW,3.5,-,N/A,,Partly Cloudy,300,2013-04-21 03:53:00